Time,TemperatureF,DewpointF,PressureIn,WindDirection,WindDirectionDegrees,WindSpeedMPH,WindSpeedGustMPH,Humidity,HourlyPrecipIn,Conditions,Clouds,dailyrainin,SolarRadiationWatts/m^2,SoftwareType,DateUTC
2013-02-26 00:04:00,27.3,25.0,29.95,North,5,8.0,12.0,92,0.00,,,0.00,0,weatherlink.com 1.10,2013-02-26 06:04:00,
2013-02-26 00:19:00,27.3,26.0,29.94,NNE,13,10.0,14.0,93,0.00,,,0.00,0,weatherlink.com 1.10,2013-02-26 06:19:00,
2013-02-26 00:34:00,27.3,26.0,29.94,NNE,14,8.0,13.0,93,0.00,,,0.00,0,weatherlink.com 1.10,2013-02-26 06:34:00,
2013-02-26 00:49:00,27.2,26.0,29.93,North,11,8.0,14.0,93,0.00,,,0.00,0,weatherlink.com 1.10,2013-02-26 06:49:00,
2013-02-26 01:04:00,27.3,26.0,29.92,North,360,10.0,13.0,93,0.00,,,0.00,0,weatherlink.com 1.10,2013-02-26 07:04:00,
2013-02-26 01:19:00,27.4,26.0,29.92,NNE,12,9.0,13.0,93,0.00,,,0.00,0,weatherlink.com 1.10,2013-02-26 07:19:00,
2013-02-26 01:34:00,27.4,26.0,29.92,North,9,8.0,15.0,93,0.00,,,0.00,0,weatherlink.com 1.10,2013-02-26 07:34:00,
2013-02-26 01:49:00,27.5,26.0,29.91,NNE,19,7.0,12.0,93,0.00,,,0.00,0,weatherlink.com 1.10,2013-02-26 07:49:00,
2013-02-26 03:02:00,27.8,26.0,29.90,North,360,8.0,12.0,93,0.00,,,0.00,0,weatherlink.com 1.10,2013-02-26 09:02:00,
2013-02-26 03:04:00,27.7,26.0,29.90,North,5,9.0,12.0,93,0.00,,,0.00,0,weatherlink.com 1.10,2013-02-26 09:04:00,
2013-02-26 03:19:00,27.6,26.0,29.89,North,5,7.0,13.0,93,0.00,,,0.00,0,weatherlink.com 1.10,2013-02-26 09:19:00,
2013-02-26 03:34:00,27.3,26.0,29.89,North,5,8.0,13.0,93,0.00,,,0.00,0,weatherlink.com 1.10,2013-02-26 09:34:00,
2013-02-26 03:49:00,27.1,25.0,29.89,NNE,15,10.0,14.0,93,0.00,,,0.00,0,weatherlink.com 1.10,2013-02-26 09:49:00,
2013-02-26 04:05:00,27.0,25.0,29.89,North,349,8.0,14.0,93,0.00,,,0.00,0,weatherlink.com 1.10,2013-02-26 10:05:00,
2013-02-26 04:20:00,26.9,25.0,29.89,North,11,10.0,14.0,93,0.00,,,0.00,0,weatherlink.com 1.10,2013-02-26 10:20:00,
2013-02-26 04:35:00,26.7,25.0,29.89,North,9,11.0,16.0,93,0.00,,,0.00,0,weatherlink.com 1.10,2013-02-26 10:35:00,
2013-02-26 04:50:00,26.5,25.0,29.89,North,5,8.0,14.0,93,0.00,,,0.00,0,weatherlink.com 1.10,2013-02-26 10:50:00,
2013-02-26 05:05:00,26.4,25.0,29.89,NNE,15,11.0,14.0,94,0.00,,,0.00,0,weatherlink.com 1.10,2013-02-26 11:05:00,
2013-02-26 05:20:00,25.9,24.0,29.90,North,349,10.0,14.0,93,0.00,,,0.00,0,weatherlink.com 1.10,2013-02-26 11:20:00,
2013-02-26 05:35:00,25.5,24.0,29.90,NNE,19,9.0,13.0,93,0.00,,,0.00,0,weatherlink.com 1.10,2013-02-26 11:35:00,
2013-02-26 05:50:00,25.4,24.0,29.90,North,11,9.0,12.0,93,0.00,,,0.00,0,weatherlink.com 1.10,2013-02-26 11:50:00,
2013-02-26 06:05:00,25.4,24.0,29.89,North,11,5.0,12.0,93,0.00,,,0.00,0,weatherlink.com 1.10,2013-02-26 12:05:00,
2013-02-26 06:20:00,25.2,24.0,29.89,North,360,8.0,15.0,93,0.00,,,0.00,0,weatherlink.com 1.10,2013-02-26 12:20:00,
2013-02-26 06:35:00,24.9,23.0,29.89,North,5,8.0,13.0,93,0.00,,,0.00,0,weatherlink.com 1.10,2013-02-26 12:35:00,
2013-02-26 06:50:00,24.9,23.0,29.89,NNW,335,9.0,13.0,93,0.00,,,0.00,0,weatherlink.com 1.10,2013-02-26 12:50:00,
2013-02-26 07:05:00,24.4,23.0,29.89,NNW,338,5.0,13.0,93,0.00,,,0.00,0,weatherlink.com 1.10,2013-02-26 13:05:00,
2013-02-26 07:20:00,24.3,23.0,29.89,NNW,336,10.0,14.0,93,0.00,,,0.00,5,weatherlink.com 1.10,2013-02-26 13:20:00,
2013-02-26 07:35:00,24.3,23.0,29.89,North,355,8.0,14.0,93,0.00,,,0.00,12,weatherlink.com 1.10,2013-02-26 13:35:00,
2013-02-26 07:50:00,24.3,23.0,29.89,North,5,10.0,11.0,93,0.00,,,0.00,21,weatherlink.com 1.10,2013-02-26 13:50:00,
2013-02-26 08:20:00,24.2,23.0,29.90,North,360,9.0,16.0,93,0.00,,,0.00,47,weatherlink.com 1.10,2013-02-26 14:20:00,
2013-02-26 08:35:00,24.6,23.0,29.91,North,11,7.0,11.0,93,0.00,,,0.00,58,weatherlink.com 1.10,2013-02-26 14:35:00,
2013-02-26 08:50:00,24.9,23.0,29.91,North,5,7.0,14.0,93,0.00,,,0.00,79,weatherlink.com 1.10,2013-02-26 14:50:00,
2013-02-26 09:05:00,24.8,23.0,29.91,North,350,11.0,14.0,93,0.00,,,0.00,77,weatherlink.com 1.10,2013-02-26 15:05:00,
2013-02-26 09:20:00,24.8,23.0,29.91,North,5,8.0,14.0,92,0.00,,,0.00,90,weatherlink.com 1.10,2013-02-26 15:20:00,
2013-02-26 09:35:00,24.8,23.0,29.91,North,350,11.0,16.0,92,0.00,,,0.00,116,weatherlink.com 1.10,2013-02-26 15:35:00,
2013-02-26 09:50:00,24.9,23.0,29.91,NNE,12,10.0,17.0,92,0.00,,,0.00,111,weatherlink.com 1.10,2013-02-26 15:50:00,
2013-02-26 10:05:00,25.2,23.0,29.90,NNW,333,10.0,13.0,92,0.00,,,0.00,160,weatherlink.com 1.10,2013-02-26 16:05:00,
2013-02-26 10:20:00,25.2,23.0,29.90,North,349,9.0,16.0,91,0.00,,,0.00,213,weatherlink.com 1.10,2013-02-26 16:20:00,
2013-02-26 10:35:00,25.8,24.0,29.90,NNW,337,12.0,16.0,91,0.00,,,0.00,234,weatherlink.com 1.10,2013-02-26 16:35:00,
2013-02-26 10:50:00,26.3,24.0,29.90,North,355,7.0,16.0,90,0.00,,,0.00,241,weatherlink.com 1.10,2013-02-26 16:50:00,
2013-02-26 11:05:00,26.7,24.0,29.90,North,355,11.0,15.0,90,0.00,,,0.00,211,weatherlink.com 1.10,2013-02-26 17:05:00,
2013-02-26 11:20:00,27.0,25.0,29.90,NNW,346,9.0,14.0,90,0.00,,,0.00,251,weatherlink.com 1.10,2013-02-26 17:20:00,
2013-02-26 11:36:00,27.6,25.0,29.90,NNW,348,9.0,19.0,89,0.00,,,0.00,285,weatherlink.com 1.10,2013-02-26 17:36:00,
2013-02-26 12:20:00,28.3,25.0,29.89,North,11,10.0,16.0,88,0.00,,,0.00,309,weatherlink.com 1.10,2013-02-26 18:20:00,
2013-02-26 12:35:00,29.1,26.0,29.88,North,5,12.0,17.0,88,0.00,,,0.00,464,weatherlink.com 1.10,2013-02-26 18:35:00,
2013-02-26 12:50:00,29.4,26.0,29.88,NNW,342,9.0,16.0,88,0.00,,,0.00,374,weatherlink.com 1.10,2013-02-26 18:50:00,
2013-02-26 13:05:00,29.8,26.0,29.87,North,360,7.0,15.0,87,0.00,,,0.00,415,weatherlink.com 1.10,2013-02-26 19:05:00,
2013-02-26 13:20:00,30.4,27.0,29.86,NNE,12,10.0,16.0,86,0.00,,,0.00,446,weatherlink.com 1.10,2013-02-26 19:20:00,
2013-02-26 13:51:00,30.3,27.0,29.86,North,350,9.0,15.0,86,0.00,,,0.00,287,weatherlink.com 1.10,2013-02-26 19:51:00,
2013-02-26 14:06:00,30.5,27.0,29.86,North,355,9.0,17.0,87,0.00,,,0.00,287,weatherlink.com 1.10,2013-02-26 20:06:00,
2013-02-26 14:21:00,30.5,27.0,29.86,North,351,11.0,14.0,86,0.00,,,0.00,292,weatherlink.com 1.10,2013-02-26 20:21:00,
2013-02-26 14:36:00,30.3,27.0,29.86,North,355,8.0,14.0,86,0.00,,,0.00,199,weatherlink.com 1.10,2013-02-26 20:36:00,
2013-02-26 14:51:00,30.1,26.0,29.86,North,355,9.0,13.0,86,0.00,,,0.00,192,weatherlink.com 1.10,2013-02-26 20:51:00,
2013-02-26 15:06:00,30.3,27.0,29.87,North,355,10.0,15.0,86,0.00,,,0.00,169,weatherlink.com 1.10,2013-02-26 21:06:00,
2013-02-26 15:21:00,30.4,27.0,29.87,North,355,7.0,13.0,87,0.00,,,0.00,181,weatherlink.com 1.10,2013-02-26 21:21:00,
2013-02-26 15:36:00,30.2,27.0,29.87,NNW,346,9.0,16.0,86,0.00,,,0.00,149,weatherlink.com 1.10,2013-02-26 21:36:00,
2013-02-26 15:51:00,30.1,27.0,29.88,NNW,340,9.0,15.0,87,0.00,,,0.00,109,weatherlink.com 1.10,2013-02-26 21:51:00,
2013-02-26 16:06:00,30.1,27.0,29.88,North,350,12.0,14.0,87,0.00,,,0.00,125,weatherlink.com 1.10,2013-02-26 22:06:00,
2013-02-26 16:21:00,30.0,27.0,29.89,NNW,335,8.0,15.0,87,0.00,,,0.00,97,weatherlink.com 1.10,2013-02-26 22:21:00,
2013-02-26 16:36:00,29.7,27.0,29.89,NNW,328,13.0,16.0,88,0.00,,,0.00,79,weatherlink.com 1.10,2013-02-26 22:36:00,
2013-02-26 16:51:00,29.4,27.0,29.89,NNW,346,9.0,16.0,89,0.00,,,0.00,70,weatherlink.com 1.10,2013-02-26 22:51:00,
2013-02-26 17:06:00,29.2,27.0,29.90,NNW,337,13.0,16.0,90,0.00,,,0.00,47,weatherlink.com 1.10,2013-02-26 23:06:00,
2013-02-26 17:21:00,29.0,27.0,29.90,NNW,342,9.0,16.0,90,0.00,,,0.00,30,weatherlink.com 1.10,2013-02-26 23:21:00,
2013-02-26 17:36:00,28.8,26.0,29.91,NNW,332,12.0,16.0,90,0.00,,,0.00,21,weatherlink.com 1.10,2013-02-26 23:36:00,
2013-02-26 17:51:00,28.8,26.0,29.91,NNW,334,10.0,14.0,90,0.00,,,0.00,11,weatherlink.com 1.10,2013-02-26 23:51:00,
2013-02-26 18:06:00,28.8,26.0,29.91,NW,326,13.0,14.0,90,0.00,,,0.00,5,weatherlink.com 1.10,2013-02-27 00:06:00,
2013-02-26 18:21:00,28.8,26.0,29.92,North,350,9.0,21.0,89,0.00,,,0.00,0,weatherlink.com 1.10,2013-02-27 00:21:00,
2013-02-26 18:36:00,28.7,26.0,29.93,NNW,342,10.0,16.0,89,0.00,,,0.00,0,weatherlink.com 1.10,2013-02-27 00:36:00,
2013-02-26 18:51:00,28.7,26.0,29.94,NNW,339,7.0,14.0,89,0.00,,,0.00,0,weatherlink.com 1.10,2013-02-27 00:51:00,
2013-02-26 19:06:00,28.6,26.0,29.94,NW,324,12.0,18.0,89,0.00,,,0.00,0,weatherlink.com 1.10,2013-02-27 01:06:00,
2013-02-26 19:21:00,28.5,26.0,29.94,NNW,327,12.0,20.0,89,0.00,,,0.00,0,weatherlink.com 1.10,2013-02-27 01:21:00,
2013-02-26 19:36:00,28.5,26.0,29.95,NNW,334,12.0,16.0,89,0.00,,,0.00,0,weatherlink.com 1.10,2013-02-27 01:36:00,
2013-02-26 19:51:00,28.5,26.0,29.95,NNW,337,10.0,17.0,89,0.00,,,0.00,0,weatherlink.com 1.10,2013-02-27 01:51:00,
2013-02-26 20:06:00,28.5,26.0,29.96,NNW,344,12.0,18.0,90,0.00,,,0.00,0,weatherlink.com 1.10,2013-02-27 02:06:00,
2013-02-26 20:21:00,28.5,26.0,29.96,NNW,345,11.0,19.0,90,0.00,,,0.00,0,weatherlink.com 1.10,2013-02-27 02:21:00,
2013-02-26 20:51:00,28.5,26.0,29.97,NNW,348,6.0,14.0,90,0.00,,,0.00,0,weatherlink.com 1.10,2013-02-27 02:51:00,
2013-02-26 21:06:00,28.4,26.0,29.97,North,351,8.0,14.0,90,0.00,,,0.00,0,weatherlink.com 1.10,2013-02-27 03:06:00,
2013-02-26 21:21:00,28.4,26.0,29.98,North,5,6.0,14.0,90,0.00,,,0.00,0,weatherlink.com 1.10,2013-02-27 03:21:00,
2013-02-26 21:36:00,28.3,26.0,29.98,NNW,333,9.0,14.0,90,0.00,,,0.00,0,weatherlink.com 1.10,2013-02-27 03:36:00,
2013-02-26 21:51:00,28.2,26.0,29.98,North,355,8.0,12.0,90,0.00,,,0.00,0,weatherlink.com 1.10,2013-02-27 03:51:00,
2013-02-26 22:06:00,28.0,26.0,29.98,NNW,344,9.0,13.0,90,0.00,,,0.00,0,weatherlink.com 1.10,2013-02-27 04:06:00,
2013-02-26 22:21:00,28.0,26.0,29.99,NNW,342,11.0,13.0,90,0.00,,,0.00,0,weatherlink.com 1.10,2013-02-27 04:21:00,
2013-02-26 22:36:00,27.9,25.0,29.99,NNW,341,9.0,13.0,90,0.00,,,0.00,0,weatherlink.com 1.10,2013-02-27 04:36:00,
2013-02-26 22:51:00,27.9,25.0,30.00,North,355,8.0,14.0,90,0.00,,,0.00,0,weatherlink.com 1.10,2013-02-27 04:51:00,
2013-02-26 23:06:00,27.6,25.0,30.00,North,5,10.0,15.0,90,0.00,,,0.00,0,weatherlink.com 1.10,2013-02-27 05:06:00,
2013-02-26 23:21:00,27.6,25.0,30.00,NNW,329,9.0,15.0,90,0.00,,,0.00,0,weatherlink.com 1.10,2013-02-27 05:21:00,
2013-02-26 23:36:00,27.5,25.0,30.00,NNW,344,10.0,14.0,90,0.00,,,0.00,0,weatherlink.com 1.10,2013-02-27 05:36:00,
2013-02-26 23:51:00,27.3,25.0,30.00,NNW,339,8.0,14.0,91,0.00,,,0.00,0,weatherlink.com 1.10,2013-02-27 05:51:00,